sensor_id;sensor_type;location;lat;lon;timestamp;P1;durP1;ratioP1;P2;durP2;ratioP2
58338;SDS011;48278;52.704;6.536;2022-08-21T00:01:21;19.67;;;10.57;;
58338;SDS011;48278;52.704;6.536;2022-08-21T00:03:49;25.85;;;10.85;;
58338;SDS011;48278;52.704;6.536;2022-08-21T00:06:15;35.45;;;11.80;;
58338;SDS011;48278;52.704;6.536;2022-08-21T00:08:41;27.40;;;12.35;;
58338;SDS011;48278;52.704;6.536;2022-08-21T00:11:07;26.38;;;12.52;;
58338;SDS011;48278;52.704;6.536;2022-08-21T00:13:34;28.63;;;12.95;;
58338;SDS011;48278;52.704;6.536;2022-08-21T00:16:00;27.20;;;12.00;;
58338;SDS011;48278;52.704;6.536;2022-08-21T00:18:27;27.77;;;12.00;;
58338;SDS011;48278;52.704;6.536;2022-08-21T00:20:52;32.15;;;13.10;;
58338;SDS011;48278;52.704;6.536;2022-08-21T00:23:18;27.77;;;12.48;;
58338;SDS011;48278;52.704;6.536;2022-08-21T00:25:45;27.77;;;12.82;;
58338;SDS011;48278;52.704;6.536;2022-08-21T00:28:11;28.33;;;13.43;;
58338;SDS011;48278;52.704;6.536;2022-08-21T00:30:38;27.77;;;13.20;;
58338;SDS011;48278;52.704;6.536;2022-08-21T00:33:04;27.15;;;12.88;;
58338;SDS011;48278;52.704;6.536;2022-08-21T00:35:34;26.92;;;12.88;;
58338;SDS011;48278;52.704;6.536;2022-08-21T00:38:02;30.55;;;12.90;;
58338;SDS011;48278;52.704;6.536;2022-08-21T00:42:57;27.85;;;12.68;;
58338;SDS011;48278;52.704;6.536;2022-08-21T00:45:23;26.80;;;12.77;;
58338;SDS011;48278;52.704;6.536;2022-08-21T00:47:49;26.58;;;12.40;;
58338;SDS011;48278;52.704;6.536;2022-08-21T00:50:16;28.77;;;13.20;;
58338;SDS011;48278;52.704;6.536;2022-08-21T00:52:43;32.25;;;12.98;;
58338;SDS011;48278;52.704;6.536;2022-08-21T00:55:10;26.55;;;12.98;;
58338;SDS011;48278;52.704;6.536;2022-08-21T00:57:38;23.95;;;12.88;;
58338;SDS011;48278;52.704;6.536;2022-08-21T01:00:12;29.90;;;13.05;;
58338;SDS011;48278;52.704;6.536;2022-08-21T01:02:41;28.40;;;13.80;;
58338;SDS011;48278;52.704;6.536;2022-08-21T01:05:07;28.67;;;13.97;;
58338;SDS011;48278;52.704;6.536;2022-08-21T01:07:33;27.55;;;13.38;;
58338;SDS011;48278;52.704;6.536;2022-08-21T01:09:59;25.13;;;13.55;;
58338;SDS011;48278;52.704;6.536;2022-08-21T01:12:25;28.60;;;13.63;;
58338;SDS011;48278;52.704;6.536;2022-08-21T01:14:52;27.98;;;14.15;;
58338;SDS011;48278;52.704;6.536;2022-08-21T01:17:18;28.85;;;13.60;;
58338;SDS011;48278;52.704;6.536;2022-08-21T01:19:45;32.83;;;14.52;;
58338;SDS011;48278;52.704;6.536;2022-08-21T01:22:12;37.08;;;14.88;;
58338;SDS011;48278;52.704;6.536;2022-08-21T01:24:38;33.38;;;15.02;;
58338;SDS011;48278;52.704;6.536;2022-08-21T01:27:04;31.25;;;14.85;;
58338;SDS011;48278;52.704;6.536;2022-08-21T01:29:33;37.75;;;15.48;;
58338;SDS011;48278;52.704;6.536;2022-08-21T01:32:16;27.58;;;14.73;;
58338;SDS011;48278;52.704;6.536;2022-08-21T01:34:45;32.33;;;14.10;;
58338;SDS011;48278;52.704;6.536;2022-08-21T01:37:12;34.38;;;15.27;;
58338;SDS011;48278;52.704;6.536;2022-08-21T01:39:38;26.38;;;14.77;;
58338;SDS011;48278;52.704;6.536;2022-08-21T01:42:05;32.67;;;13.95;;
58338;SDS011;48278;52.704;6.536;2022-08-21T01:44:31;33.53;;;14.68;;
58338;SDS011;48278;52.704;6.536;2022-08-21T01:46:58;31.42;;;15.63;;
58338;SDS011;48278;52.704;6.536;2022-08-21T01:49:25;30.63;;;14.82;;
58338;SDS011;48278;52.704;6.536;2022-08-21T01:51:52;27.97;;;14.13;;
58338;SDS011;48278;52.704;6.536;2022-08-21T01:54:17;24.33;;;13.05;;
58338;SDS011;48278;52.704;6.536;2022-08-21T01:56:46;33.83;;;14.73;;
58338;SDS011;48278;52.704;6.536;2022-08-21T01:59:14;36.33;;;15.00;;
58338;SDS011;48278;52.704;6.536;2022-08-21T02:01:41;30.37;;;14.57;;
58338;SDS011;48278;52.704;6.536;2022-08-21T02:04:07;32.22;;;14.50;;
58338;SDS011;48278;52.704;6.536;2022-08-21T02:06:34;36.78;;;14.85;;
58338;SDS011;48278;52.704;6.536;2022-08-21T02:09:01;27.00;;;13.67;;
58338;SDS011;48278;52.704;6.536;2022-08-21T02:11:28;27.08;;;13.80;;
58338;SDS011;48278;52.704;6.536;2022-08-21T02:13:54;29.95;;;13.70;;
58338;SDS011;48278;52.704;6.536;2022-08-21T02:16:19;29.75;;;14.15;;
58338;SDS011;48278;52.704;6.536;2022-08-21T02:18:45;24.70;;;13.25;;
58338;SDS011;48278;52.704;6.536;2022-08-21T02:21:11;28.75;;;13.57;;
58338;SDS011;48278;52.704;6.536;2022-08-21T02:23:37;31.80;;;14.10;;
58338;SDS011;48278;52.704;6.536;2022-08-21T02:26:04;30.20;;;13.88;;
58338;SDS011;48278;52.704;6.536;2022-08-21T02:28:31;27.90;;;13.32;;
58338;SDS011;48278;52.704;6.536;2022-08-21T02:30:58;23.58;;;14.07;;
58338;SDS011;48278;52.704;6.536;2022-08-21T02:33:24;23.60;;;12.98;;
58338;SDS011;48278;52.704;6.536;2022-08-21T02:35:51;28.60;;;14.38;;
58338;SDS011;48278;52.704;6.536;2022-08-21T02:40:49;25.17;;;12.20;;
58338;SDS011;48278;52.704;6.536;2022-08-21T02:45:42;28.38;;;12.75;;
58338;SDS011;48278;52.704;6.536;2022-08-21T02:48:11;25.67;;;13.00;;
58338;SDS011;48278;52.704;6.536;2022-08-21T02:50:40;25.30;;;12.43;;
58338;SDS011;48278;52.704;6.536;2022-08-21T02:53:08;22.60;;;12.77;;
58338;SDS011;48278;52.704;6.536;2022-08-21T02:55:36;27.10;;;13.13;;
58338;SDS011;48278;52.704;6.536;2022-08-21T02:58:04;26.40;;;13.35;;
58338;SDS011;48278;52.704;6.536;2022-08-21T03:00:31;24.80;;;12.55;;
58338;SDS011;48278;52.704;6.536;2022-08-21T03:02:58;25.10;;;12.68;;
58338;SDS011;48278;52.704;6.536;2022-08-21T03:05:24;25.85;;;12.43;;
58338;SDS011;48278;52.704;6.536;2022-08-21T03:07:51;30.00;;;12.60;;
58338;SDS011;48278;52.704;6.536;2022-08-21T03:10:17;29.25;;;12.38;;
58338;SDS011;48278;52.704;6.536;2022-08-21T03:12:48;26.15;;;13.07;;
58338;SDS011;48278;52.704;6.536;2022-08-21T03:15:15;26.40;;;12.85;;
58338;SDS011;48278;52.704;6.536;2022-08-21T03:17:42;25.95;;;13.25;;
58338;SDS011;48278;52.704;6.536;2022-08-21T03:20:09;28.08;;;12.93;;
58338;SDS011;48278;52.704;6.536;2022-08-21T03:22:35;24.73;;;13.73;;
58338;SDS011;48278;52.704;6.536;2022-08-21T03:25:02;27.42;;;13.15;;
58338;SDS011;48278;52.704;6.536;2022-08-21T03:27:28;26.17;;;12.85;;
58338;SDS011;48278;52.704;6.536;2022-08-21T03:32:21;26.10;;;12.77;;
58338;SDS011;48278;52.704;6.536;2022-08-21T03:34:47;24.80;;;12.95;;
58338;SDS011;48278;52.704;6.536;2022-08-21T03:37:13;25.38;;;13.23;;
58338;SDS011;48278;52.704;6.536;2022-08-21T03:39:39;24.23;;;13.43;;
58338;SDS011;48278;52.704;6.536;2022-08-21T03:42:06;29.17;;;13.48;;
58338;SDS011;48278;52.704;6.536;2022-08-21T03:44:33;25.60;;;14.00;;
58338;SDS011;48278;52.704;6.536;2022-08-21T03:46:59;30.10;;;15.10;;
58338;SDS011;48278;52.704;6.536;2022-08-21T03:49:26;27.15;;;14.10;;
58338;SDS011;48278;52.704;6.536;2022-08-21T03:51:52;27.95;;;13.85;;
58338;SDS011;48278;52.704;6.536;2022-08-21T03:54:18;24.52;;;13.48;;
58338;SDS011;48278;52.704;6.536;2022-08-21T03:56:44;27.27;;;13.73;;
58338;SDS011;48278;52.704;6.536;2022-08-21T03:59:10;25.38;;;13.55;;
58338;SDS011;48278;52.704;6.536;2022-08-21T04:01:36;27.38;;;13.75;;
58338;SDS011;48278;52.704;6.536;2022-08-21T04:04:03;25.60;;;14.15;;
58338;SDS011;48278;52.704;6.536;2022-08-21T04:06:29;23.77;;;12.98;;
58338;SDS011;48278;52.704;6.536;2022-08-21T04:08:55;26.00;;;13.48;;
58338;SDS011;48278;52.704;6.536;2022-08-21T04:11:20;28.20;;;13.50;;
58338;SDS011;48278;52.704;6.536;2022-08-21T04:13:46;25.77;;;12.77;;
58338;SDS011;48278;52.704;6.536;2022-08-21T04:16:12;26.45;;;13.25;;
58338;SDS011;48278;52.704;6.536;2022-08-21T04:18:39;27.60;;;13.10;;
58338;SDS011;48278;52.704;6.536;2022-08-21T04:21:05;26.50;;;13.23;;
58338;SDS011;48278;52.704;6.536;2022-08-21T04:23:32;28.30;;;13.05;;
58338;SDS011;48278;52.704;6.536;2022-08-21T04:25:59;26.92;;;13.77;;
58338;SDS011;48278;52.704;6.536;2022-08-21T04:28:25;27.20;;;13.50;;
58338;SDS011;48278;52.704;6.536;2022-08-21T04:30:52;26.70;;;12.45;;
58338;SDS011;48278;52.704;6.536;2022-08-21T04:33:18;24.25;;;12.70;;
58338;SDS011;48278;52.704;6.536;2022-08-21T04:35:45;26.80;;;12.20;;
58338;SDS011;48278;52.704;6.536;2022-08-21T04:38:11;27.67;;;12.77;;
58338;SDS011;48278;52.704;6.536;2022-08-21T04:40:37;22.92;;;12.63;;
58338;SDS011;48278;52.704;6.536;2022-08-21T04:43:04;25.88;;;12.38;;
58338;SDS011;48278;52.704;6.536;2022-08-21T04:45:34;25.77;;;12.93;;
58338;SDS011;48278;52.704;6.536;2022-08-21T04:48:03;22.13;;;12.05;;
58338;SDS011;48278;52.704;6.536;2022-08-21T04:50:36;24.30;;;12.50;;
58338;SDS011;48278;52.704;6.536;2022-08-21T04:53:07;29.48;;;13.20;;
58338;SDS011;48278;52.704;6.536;2022-08-21T04:55:39;23.77;;;12.32;;
58338;SDS011;48278;52.704;6.536;2022-08-21T04:58:07;22.90;;;12.30;;
58338;SDS011;48278;52.704;6.536;2022-08-21T05:00:36;22.58;;;11.88;;
58338;SDS011;48278;52.704;6.536;2022-08-21T05:03:02;23.85;;;11.75;;
58338;SDS011;48278;52.704;6.536;2022-08-21T05:07:55;25.13;;;10.80;;
58338;SDS011;48278;52.704;6.536;2022-08-21T05:10:24;18.83;;;10.98;;
58338;SDS011;48278;52.704;6.536;2022-08-21T05:12:50;19.65;;;10.68;;
58338;SDS011;48278;52.704;6.536;2022-08-21T05:15:15;21.02;;;10.43;;
58338;SDS011;48278;52.704;6.536;2022-08-21T05:17:42;20.60;;;10.50;;
58338;SDS011;48278;52.704;6.536;2022-08-21T05:20:09;22.52;;;10.30;;
58338;SDS011;48278;52.704;6.536;2022-08-21T05:22:35;21.48;;;10.30;;
58338;SDS011;48278;52.704;6.536;2022-08-21T05:25:02;19.77;;;9.67;;
58338;SDS011;48278;52.704;6.536;2022-08-21T05:27:28;21.02;;;10.00;;
58338;SDS011;48278;52.704;6.536;2022-08-21T05:29:55;22.38;;;9.70;;
58338;SDS011;48278;52.704;6.536;2022-08-21T05:32:21;22.35;;;9.55;;
58338;SDS011;48278;52.704;6.536;2022-08-21T05:34:50;23.25;;;9.80;;
58338;SDS011;48278;52.704;6.536;2022-08-21T05:37:16;20.30;;;9.40;;
58338;SDS011;48278;52.704;6.536;2022-08-21T05:39:41;20.67;;;9.68;;
58338;SDS011;48278;52.704;6.536;2022-08-21T05:42:07;18.00;;;10.13;;
58338;SDS011;48278;52.704;6.536;2022-08-21T05:44:33;23.38;;;9.40;;
58338;SDS011;48278;52.704;6.536;2022-08-21T05:47:05;21.60;;;9.82;;
58338;SDS011;48278;52.704;6.536;2022-08-21T05:49:33;20.95;;;9.68;;
58338;SDS011;48278;52.704;6.536;2022-08-21T05:51:59;19.67;;;9.43;;
58338;SDS011;48278;52.704;6.536;2022-08-21T05:54:25;20.98;;;9.65;;
58338;SDS011;48278;52.704;6.536;2022-08-21T05:56:51;19.70;;;9.27;;
58338;SDS011;48278;52.704;6.536;2022-08-21T05:59:17;19.48;;;9.15;;
58338;SDS011;48278;52.704;6.536;2022-08-21T06:01:43;21.77;;;9.40;;
58338;SDS011;48278;52.704;6.536;2022-08-21T06:04:10;22.88;;;9.48;;
58338;SDS011;48278;52.704;6.536;2022-08-21T06:06:36;21.55;;;8.55;;
58338;SDS011;48278;52.704;6.536;2022-08-21T06:09:03;21.75;;;8.70;;
58338;SDS011;48278;52.704;6.536;2022-08-21T06:11:29;19.98;;;8.63;;
58338;SDS011;48278;52.704;6.536;2022-08-21T06:13:56;21.77;;;9.50;;
58338;SDS011;48278;52.704;6.536;2022-08-21T06:16:22;19.23;;;8.38;;
58338;SDS011;48278;52.704;6.536;2022-08-21T06:18:48;15.83;;;8.37;;
58338;SDS011;48278;52.704;6.536;2022-08-21T06:21:14;18.48;;;8.00;;
58338;SDS011;48278;52.704;6.536;2022-08-21T06:23:41;15.68;;;8.52;;
58338;SDS011;48278;52.704;6.536;2022-08-21T06:26:07;20.50;;;8.60;;
58338;SDS011;48278;52.704;6.536;2022-08-21T06:28:34;21.35;;;8.40;;
58338;SDS011;48278;52.704;6.536;2022-08-21T06:31:09;21.02;;;8.38;;
58338;SDS011;48278;52.704;6.536;2022-08-21T06:33:42;19.75;;;8.10;;
58338;SDS011;48278;52.704;6.536;2022-08-21T06:36:08;22.17;;;8.75;;
58338;SDS011;48278;52.704;6.536;2022-08-21T06:38:34;19.75;;;8.30;;
58338;SDS011;48278;52.704;6.536;2022-08-21T06:41:00;16.52;;;8.30;;
58338;SDS011;48278;52.704;6.536;2022-08-21T06:43:26;18.70;;;8.20;;
58338;SDS011;48278;52.704;6.536;2022-08-21T06:45:52;19.75;;;8.60;;
58338;SDS011;48278;52.704;6.536;2022-08-21T06:48:18;18.23;;;8.52;;
58338;SDS011;48278;52.704;6.536;2022-08-21T06:50:44;22.88;;;8.25;;
58338;SDS011;48278;52.704;6.536;2022-08-21T06:53:11;19.70;;;8.18;;
58338;SDS011;48278;52.704;6.536;2022-08-21T06:55:38;18.20;;;7.97;;
58338;SDS011;48278;52.704;6.536;2022-08-21T06:58:04;22.40;;;8.45;;
58338;SDS011;48278;52.704;6.536;2022-08-21T07:00:30;18.77;;;7.85;;
58338;SDS011;48278;52.704;6.536;2022-08-21T07:05:25;19.60;;;8.07;;
58338;SDS011;48278;52.704;6.536;2022-08-21T07:07:52;18.52;;;7.57;;
58338;SDS011;48278;52.704;6.536;2022-08-21T07:10:17;19.58;;;7.05;;
58338;SDS011;48278;52.704;6.536;2022-08-21T07:12:43;18.25;;;6.80;;
58338;SDS011;48278;52.704;6.536;2022-08-21T07:15:09;17.45;;;6.78;;
58338;SDS011;48278;52.704;6.536;2022-08-21T07:17:36;13.82;;;4.50;;
58338;SDS011;48278;52.704;6.536;2022-08-21T07:20:02;16.02;;;6.43;;
58338;SDS011;48278;52.704;6.536;2022-08-21T07:22:29;21.23;;;7.40;;
58338;SDS011;48278;52.704;6.536;2022-08-21T07:24:56;20.98;;;7.38;;
58338;SDS011;48278;52.704;6.536;2022-08-21T07:27:21;19.43;;;6.73;;
58338;SDS011;48278;52.704;6.536;2022-08-21T07:29:47;16.57;;;5.50;;
58338;SDS011;48278;52.704;6.536;2022-08-21T07:32:13;18.63;;;6.43;;
58338;SDS011;48278;52.704;6.536;2022-08-21T07:34:40;20.25;;;5.72;;
58338;SDS011;48278;52.704;6.536;2022-08-21T07:37:06;19.40;;;5.32;;
58338;SDS011;48278;52.704;6.536;2022-08-21T07:39:32;20.20;;;5.50;;
58338;SDS011;48278;52.704;6.536;2022-08-21T07:41:58;20.83;;;6.32;;
58338;SDS011;48278;52.704;6.536;2022-08-21T07:44:23;17.47;;;5.47;;
58338;SDS011;48278;52.704;6.536;2022-08-21T07:46:49;18.87;;;5.37;;
58338;SDS011;48278;52.704;6.536;2022-08-21T07:49:15;20.63;;;5.50;;
58338;SDS011;48278;52.704;6.536;2022-08-21T07:51:40;21.00;;;5.60;;
58338;SDS011;48278;52.704;6.536;2022-08-21T07:54:07;20.00;;;5.07;;
58338;SDS011;48278;52.704;6.536;2022-08-21T07:56:33;15.73;;;3.80;;
58338;SDS011;48278;52.704;6.536;2022-08-21T07:58:59;17.30;;;4.50;;
58338;SDS011;48278;52.704;6.536;2022-08-21T08:01:27;17.65;;;4.03;;
58338;SDS011;48278;52.704;6.536;2022-08-21T08:03:53;20.87;;;3.83;;
58338;SDS011;48278;52.704;6.536;2022-08-21T08:06:20;11.05;;;4.00;;
58338;SDS011;48278;52.704;6.536;2022-08-21T08:08:45;17.63;;;3.23;;
58338;SDS011;48278;52.704;6.536;2022-08-21T08:11:12;15.07;;;4.05;;
58338;SDS011;48278;52.704;6.536;2022-08-21T08:13:42;12.85;;;3.75;;
58338;SDS011;48278;52.704;6.536;2022-08-21T08:16:12;16.98;;;4.20;;
58338;SDS011;48278;52.704;6.536;2022-08-21T08:18:39;18.75;;;4.50;;
58338;SDS011;48278;52.704;6.536;2022-08-21T08:21:06;17.00;;;4.55;;
58338;SDS011;48278;52.704;6.536;2022-08-21T08:23:32;17.88;;;5.10;;
58338;SDS011;48278;52.704;6.536;2022-08-21T08:25:58;16.43;;;4.80;;
58338;SDS011;48278;52.704;6.536;2022-08-21T08:28:24;19.27;;;4.27;;
58338;SDS011;48278;52.704;6.536;2022-08-21T08:30:50;18.70;;;5.13;;
58338;SDS011;48278;52.704;6.536;2022-08-21T08:33:17;14.07;;;3.92;;
58338;SDS011;48278;52.704;6.536;2022-08-21T08:35:44;15.27;;;3.97;;
58338;SDS011;48278;52.704;6.536;2022-08-21T08:38:12;15.05;;;4.38;;
58338;SDS011;48278;52.704;6.536;2022-08-21T08:40:44;13.45;;;4.07;;
58338;SDS011;48278;52.704;6.536;2022-08-21T08:43:25;11.32;;;3.42;;
58338;SDS011;48278;52.704;6.536;2022-08-21T08:45:57;14.10;;;4.18;;
58338;SDS011;48278;52.704;6.536;2022-08-21T08:51:04;23.65;;;4.10;;
58338;SDS011;48278;52.704;6.536;2022-08-21T08:53:48;14.55;;;3.63;;
58338;SDS011;48278;52.704;6.536;2022-08-21T08:56:18;14.75;;;4.30;;
58338;SDS011;48278;52.704;6.536;2022-08-21T08:58:51;17.42;;;4.40;;
58338;SDS011;48278;52.704;6.536;2022-08-21T09:01:18;16.02;;;4.00;;
58338;SDS011;48278;52.704;6.536;2022-08-21T09:03:45;19.55;;;3.83;;
58338;SDS011;48278;52.704;6.536;2022-08-21T09:26:26;14.70;;;3.95;;
58338;SDS011;48278;52.704;6.536;2022-08-21T09:29:15;13.02;;;3.55;;
58338;SDS011;48278;52.704;6.536;2022-08-21T09:31:45;11.40;;;2.67;;
58338;SDS011;48278;52.704;6.536;2022-08-21T09:34:11;12.17;;;2.40;;
58338;SDS011;48278;52.704;6.536;2022-08-21T09:36:45;13.93;;;2.78;;
58338;SDS011;48278;52.704;6.536;2022-08-21T09:39:22;15.85;;;2.78;;
58338;SDS011;48278;52.704;6.536;2022-08-21T09:42:00;17.52;;;2.13;;
58338;SDS011;48278;52.704;6.536;2022-08-21T09:44:33;13.02;;;1.95;;
58338;SDS011;48278;52.704;6.536;2022-08-21T09:47:04;8.80;;;1.52;;
58338;SDS011;48278;52.704;6.536;2022-08-21T09:49:31;15.40;;;2.40;;
58338;SDS011;48278;52.704;6.536;2022-08-21T09:52:00;9.23;;;1.40;;
58338;SDS011;48278;52.704;6.536;2022-08-21T09:54:31;15.27;;;1.73;;
58338;SDS011;48278;52.704;6.536;2022-08-21T09:57:01;7.82;;;1.60;;
58338;SDS011;48278;52.704;6.536;2022-08-21T09:59:52;12.30;;;1.95;;
58338;SDS011;48278;52.704;6.536;2022-08-21T10:02:32;11.32;;;1.70;;
58338;SDS011;48278;52.704;6.536;2022-08-21T10:05:00;10.15;;;1.40;;
58338;SDS011;48278;52.704;6.536;2022-08-21T10:07:40;8.52;;;1.42;;
58338;SDS011;48278;52.704;6.536;2022-08-21T10:10:13;11.80;;;1.60;;
58338;SDS011;48278;52.704;6.536;2022-08-21T10:34:13;11.75;;;1.98;;
58338;SDS011;48278;52.704;6.536;2022-08-21T10:36:56;13.93;;;2.20;;
58338;SDS011;48278;52.704;6.536;2022-08-21T10:39:34;18.10;;;1.97;;
58338;SDS011;48278;52.704;6.536;2022-08-21T10:47:29;12.18;;;2.15;;
58338;SDS011;48278;52.704;6.536;2022-08-21T10:57:54;9.88;;;1.95;;
58338;SDS011;48278;52.704;6.536;2022-08-21T11:03:35;16.58;;;2.60;;
58338;SDS011;48278;52.704;6.536;2022-08-21T11:08:39;16.92;;;2.60;;
58338;SDS011;48278;52.704;6.536;2022-08-21T11:11:10;12.75;;;2.38;;
58338;SDS011;48278;52.704;6.536;2022-08-21T11:19:11;16.42;;;2.65;;
58338;SDS011;48278;52.704;6.536;2022-08-21T11:24:40;10.20;;;2.30;;
58338;SDS011;48278;52.704;6.536;2022-08-21T11:27:48;16.73;;;2.67;;
58338;SDS011;48278;52.704;6.536;2022-08-21T11:30:27;14.05;;;2.90;;
58338;SDS011;48278;52.704;6.536;2022-08-21T11:35:58;11.35;;;2.08;;
58338;SDS011;48278;52.704;6.536;2022-08-21T11:38:33;16.85;;;2.22;;
58338;SDS011;48278;52.704;6.536;2022-08-21T11:46:53;16.48;;;2.40;;
58338;SDS011;48278;52.704;6.536;2022-08-21T11:49:57;15.25;;;2.08;;
58338;SDS011;48278;52.704;6.536;2022-08-21T11:52:27;11.85;;;2.22;;
58338;SDS011;48278;52.704;6.536;2022-08-21T11:55:12;13.65;;;2.33;;
58338;SDS011;48278;52.704;6.536;2022-08-21T12:00:20;10.65;;;1.80;;
58338;SDS011;48278;52.704;6.536;2022-08-21T12:02:55;12.37;;;2.20;;
58338;SDS011;48278;52.704;6.536;2022-08-21T12:05:32;12.65;;;2.00;;
58338;SDS011;48278;52.704;6.536;2022-08-21T12:10:38;9.95;;;2.35;;
58338;SDS011;48278;52.704;6.536;2022-08-21T12:13:11;15.18;;;2.10;;
58338;SDS011;48278;52.704;6.536;2022-08-21T12:18:32;18.10;;;2.58;;
58338;SDS011;48278;52.704;6.536;2022-08-21T12:23:48;14.30;;;2.90;;
58338;SDS011;48278;52.704;6.536;2022-08-21T12:26:30;14.77;;;2.75;;
58338;SDS011;48278;52.704;6.536;2022-08-21T12:29:04;14.45;;;2.38;;
58338;SDS011;48278;52.704;6.536;2022-08-21T12:31:49;17.27;;;2.67;;
58338;SDS011;48278;52.704;6.536;2022-08-21T12:34:20;18.40;;;2.88;;
58338;SDS011;48278;52.704;6.536;2022-08-21T12:36:49;17.40;;;2.70;;
58338;SDS011;48278;52.704;6.536;2022-08-21T12:39:25;16.95;;;2.80;;
58338;SDS011;48278;52.704;6.536;2022-08-21T12:44:48;13.93;;;2.58;;
58338;SDS011;48278;52.704;6.536;2022-08-21T12:47:25;12.80;;;2.58;;
58338;SDS011;48278;52.704;6.536;2022-08-21T12:50:40;13.27;;;2.78;;
58338;SDS011;48278;52.704;6.536;2022-08-21T12:55:34;12.95;;;2.55;;
58338;SDS011;48278;52.704;6.536;2022-08-21T12:58:05;14.70;;;2.85;;
58338;SDS011;48278;52.704;6.536;2022-08-21T13:00:30;18.57;;;3.10;;
58338;SDS011;48278;52.704;6.536;2022-08-21T13:02:56;14.53;;;2.70;;
58338;SDS011;48278;52.704;6.536;2022-08-21T13:05:35;15.95;;;2.75;;
58338;SDS011;48278;52.704;6.536;2022-08-21T13:08:06;16.42;;;3.28;;
58338;SDS011;48278;52.704;6.536;2022-08-21T13:10:35;16.58;;;3.33;;
58338;SDS011;48278;52.704;6.536;2022-08-21T13:13:03;18.58;;;3.33;;
58338;SDS011;48278;52.704;6.536;2022-08-21T13:15:32;16.33;;;2.90;;
58338;SDS011;48278;52.704;6.536;2022-08-21T13:18:01;17.73;;;3.25;;
58338;SDS011;48278;52.704;6.536;2022-08-21T13:20:30;12.68;;;2.58;;
58338;SDS011;48278;52.704;6.536;2022-08-21T13:23:03;13.90;;;3.08;;
58338;SDS011;48278;52.704;6.536;2022-08-21T13:25:36;17.33;;;3.00;;
58338;SDS011;48278;52.704;6.536;2022-08-21T13:30:34;18.48;;;2.72;;
58338;SDS011;48278;52.704;6.536;2022-08-21T13:33:04;15.20;;;2.78;;
58338;SDS011;48278;52.704;6.536;2022-08-21T13:35:35;20.33;;;3.47;;
58338;SDS011;48278;52.704;6.536;2022-08-21T13:38:11;21.55;;;3.30;;
58338;SDS011;48278;52.704;6.536;2022-08-21T13:40:44;17.20;;;3.17;;
58338;SDS011;48278;52.704;6.536;2022-08-21T13:43:27;18.08;;;3.40;;
58338;SDS011;48278;52.704;6.536;2022-08-21T13:45:55;16.20;;;2.83;;
58338;SDS011;48278;52.704;6.536;2022-08-21T13:48:23;17.23;;;2.88;;
58338;SDS011;48278;52.704;6.536;2022-08-21T13:50:52;14.45;;;2.92;;
58338;SDS011;48278;52.704;6.536;2022-08-21T13:55:55;15.25;;;3.60;;
58338;SDS011;48278;52.704;6.536;2022-08-21T13:58:26;16.42;;;4.10;;
58338;SDS011;48278;52.704;6.536;2022-08-21T14:01:15;18.57;;;3.43;;
58338;SDS011;48278;52.704;6.536;2022-08-21T14:03:49;19.65;;;3.90;;
58338;SDS011;48278;52.704;6.536;2022-08-21T14:06:18;17.88;;;3.20;;
58338;SDS011;48278;52.704;6.536;2022-08-21T14:08:57;15.77;;;4.00;;
58338;SDS011;48278;52.704;6.536;2022-08-21T14:11:32;16.30;;;3.28;;
58338;SDS011;48278;52.704;6.536;2022-08-21T14:14:02;15.07;;;4.20;;
58338;SDS011;48278;52.704;6.536;2022-08-21T14:16:46;13.90;;;3.90;;
58338;SDS011;48278;52.704;6.536;2022-08-21T14:19:22;14.88;;;4.80;;
58338;SDS011;48278;52.704;6.536;2022-08-21T14:21:50;14.35;;;5.47;;
58338;SDS011;48278;52.704;6.536;2022-08-21T14:26:52;16.02;;;4.60;;
58338;SDS011;48278;52.704;6.536;2022-08-21T14:29:22;20.92;;;5.00;;
58338;SDS011;48278;52.704;6.536;2022-08-21T14:31:57;19.42;;;5.47;;
58338;SDS011;48278;52.704;6.536;2022-08-21T14:34:25;25.88;;;6.82;;
58338;SDS011;48278;52.704;6.536;2022-08-21T14:36:53;23.83;;;5.88;;
58338;SDS011;48278;52.704;6.536;2022-08-21T14:39:19;22.35;;;5.80;;
58338;SDS011;48278;52.704;6.536;2022-08-21T14:41:45;20.08;;;4.10;;
58338;SDS011;48278;52.704;6.536;2022-08-21T14:44:13;16.17;;;4.63;;
58338;SDS011;48278;52.704;6.536;2022-08-21T14:46:41;27.75;;;7.05;;
58338;SDS011;48278;52.704;6.536;2022-08-21T14:49:06;15.65;;;4.38;;
58338;SDS011;48278;52.704;6.536;2022-08-21T14:51:32;12.47;;;3.90;;
58338;SDS011;48278;52.704;6.536;2022-08-21T14:53:58;15.38;;;4.50;;
58338;SDS011;48278;52.704;6.536;2022-08-21T14:56:24;16.93;;;4.47;;
58338;SDS011;48278;52.704;6.536;2022-08-21T14:58:51;18.52;;;5.78;;
58338;SDS011;48278;52.704;6.536;2022-08-21T15:01:18;13.60;;;4.78;;
58338;SDS011;48278;52.704;6.536;2022-08-21T15:03:46;15.48;;;4.53;;
58338;SDS011;48278;52.704;6.536;2022-08-21T15:06:13;16.92;;;3.90;;
58338;SDS011;48278;52.704;6.536;2022-08-21T15:08:42;18.20;;;4.00;;
58338;SDS011;48278;52.704;6.536;2022-08-21T15:11:08;21.52;;;3.67;;
58338;SDS011;48278;52.704;6.536;2022-08-21T15:13:39;17.15;;;3.60;;
58338;SDS011;48278;52.704;6.536;2022-08-21T15:16:05;13.52;;;3.88;;
58338;SDS011;48278;52.704;6.536;2022-08-21T15:18:34;19.25;;;3.75;;
58338;SDS011;48278;52.704;6.536;2022-08-21T15:20:59;15.17;;;3.50;;
58338;SDS011;48278;52.704;6.536;2022-08-21T15:23:25;14.20;;;3.80;;
58338;SDS011;48278;52.704;6.536;2022-08-21T15:25:51;21.30;;;4.57;;
58338;SDS011;48278;52.704;6.536;2022-08-21T15:28:18;17.55;;;4.05;;
58338;SDS011;48278;52.704;6.536;2022-08-21T15:30:45;14.80;;;4.20;;
58338;SDS011;48278;52.704;6.536;2022-08-21T15:35:37;18.20;;;3.90;;
58338;SDS011;48278;52.704;6.536;2022-08-21T15:38:04;22.48;;;5.05;;
58338;SDS011;48278;52.704;6.536;2022-08-21T15:40:30;12.03;;;3.20;;
58338;SDS011;48278;52.704;6.536;2022-08-21T15:42:57;21.13;;;7.03;;
58338;SDS011;48278;52.704;6.536;2022-08-21T15:45:25;20.75;;;4.63;;
58338;SDS011;48278;52.704;6.536;2022-08-21T15:47:51;16.58;;;3.78;;
58338;SDS011;48278;52.704;6.536;2022-08-21T15:50:18;16.73;;;3.60;;
58338;SDS011;48278;52.704;6.536;2022-08-21T15:52:44;17.85;;;3.50;;
58338;SDS011;48278;52.704;6.536;2022-08-21T15:55:10;12.30;;;3.13;;
58338;SDS011;48278;52.704;6.536;2022-08-21T15:57:37;12.68;;;3.15;;
58338;SDS011;48278;52.704;6.536;2022-08-21T16:00:15;13.23;;;2.80;;
58338;SDS011;48278;52.704;6.536;2022-08-21T16:02:46;20.58;;;3.50;;
58338;SDS011;48278;52.704;6.536;2022-08-21T16:05:14;11.50;;;3.55;;
58338;SDS011;48278;52.704;6.536;2022-08-21T16:07:41;14.93;;;3.33;;
58338;SDS011;48278;52.704;6.536;2022-08-21T16:10:08;12.63;;;3.05;;
58338;SDS011;48278;52.704;6.536;2022-08-21T16:12:35;14.35;;;3.08;;
58338;SDS011;48278;52.704;6.536;2022-08-21T16:15:09;9.13;;;3.17;;
58338;SDS011;48278;52.704;6.536;2022-08-21T16:17:38;15.38;;;3.92;;
58338;SDS011;48278;52.704;6.536;2022-08-21T16:20:10;17.23;;;3.90;;
58338;SDS011;48278;52.704;6.536;2022-08-21T16:22:37;10.60;;;3.22;;
58338;SDS011;48278;52.704;6.536;2022-08-21T16:25:04;15.27;;;3.25;;
58338;SDS011;48278;52.704;6.536;2022-08-21T16:27:31;13.27;;;2.92;;
58338;SDS011;48278;52.704;6.536;2022-08-21T16:29:57;14.55;;;3.35;;
58338;SDS011;48278;52.704;6.536;2022-08-21T16:32:23;18.10;;;4.87;;
58338;SDS011;48278;52.704;6.536;2022-08-21T16:34:48;18.10;;;5.07;;
58338;SDS011;48278;52.704;6.536;2022-08-21T16:37:15;25.98;;;12.90;;
58338;SDS011;48278;52.704;6.536;2022-08-21T16:39:41;21.30;;;5.53;;
58338;SDS011;48278;52.704;6.536;2022-08-21T16:42:08;16.87;;;3.60;;